sensor_id;sensor_type;location;lat;lon;timestamp;P1;durP1;ratioP1;P2;durP2;ratioP2
2724;SDS011;1370;52.596;13.112;2023-08-31T00:00:22;3.90;;;3.70;;
2724;SDS011;1370;52.596;13.112;2023-08-31T00:02:47;4.47;;;3.67;;
2724;SDS011;1370;52.596;13.112;2023-08-31T00:05:12;9.80;;;4.93;;
2724;SDS011;1370;52.596;13.112;2023-08-31T00:07:38;4.17;;;3.87;;
2724;SDS011;1370;52.596;13.112;2023-08-31T00:10:03;8.07;;;4.00;;
2724;SDS011;1370;52.596;13.112;2023-08-31T00:12:34;4.27;;;4.07;;
2724;SDS011;1370;52.596;13.112;2023-08-31T00:15:00;4.90;;;4.47;;
2724;SDS011;1370;52.596;13.112;2023-08-31T00:17:25;4.70;;;4.40;;
2724;SDS011;1370;52.596;13.112;2023-08-31T00:19:50;4.83;;;4.43;;
2724;SDS011;1370;52.596;13.112;2023-08-31T00:22:16;5.60;;;5.17;;
2724;SDS011;1370;52.596;13.112;2023-08-31T00:24:41;5.20;;;4.90;;
2724;SDS011;1370;52.596;13.112;2023-08-31T00:27:07;6.23;;;5.90;;
2724;SDS011;1370;52.596;13.112;2023-08-31T00:29:35;6.97;;;6.40;;
2724;SDS011;1370;52.596;13.112;2023-08-31T00:32:02;6.33;;;5.83;;
2724;SDS011;1370;52.596;13.112;2023-08-31T00:34:28;7.63;;;5.90;;
2724;SDS011;1370;52.596;13.112;2023-08-31T00:36:53;7.70;;;7.00;;
2724;SDS011;1370;52.596;13.112;2023-08-31T00:39:18;6.47;;;6.13;;
2724;SDS011;1370;52.596;13.112;2023-08-31T00:41:46;6.17;;;5.77;;
2724;SDS011;1370;52.596;13.112;2023-08-31T00:44:11;5.90;;;5.40;;
2724;SDS011;1370;52.596;13.112;2023-08-31T00:46:37;6.20;;;5.80;;
2724;SDS011;1370;52.596;13.112;2023-08-31T00:49:02;6.37;;;5.97;;
2724;SDS011;1370;52.596;13.112;2023-08-31T00:51:29;7.00;;;6.40;;
2724;SDS011;1370;52.596;13.112;2023-08-31T00:53:54;7.20;;;6.70;;
2724;SDS011;1370;52.596;13.112;2023-08-31T00:56:20;7.50;;;6.97;;
2724;SDS011;1370;52.596;13.112;2023-08-31T00:58:45;6.47;;;5.90;;
2724;SDS011;1370;52.596;13.112;2023-08-31T01:01:22;7.17;;;6.50;;
2724;SDS011;1370;52.596;13.112;2023-08-31T01:03:53;8.80;;;8.13;;
2724;SDS011;1370;52.596;13.112;2023-08-31T01:06:27;7.30;;;6.80;;
2724;SDS011;1370;52.596;13.112;2023-08-31T01:09:16;8.20;;;7.60;;
2724;SDS011;1370;52.596;13.112;2023-08-31T01:14:32;6.03;;;5.63;;
2724;SDS011;1370;52.596;13.112;2023-08-31T01:16:59;9.23;;;6.77;;
2724;SDS011;1370;52.596;13.112;2023-08-31T01:22:21;6.27;;;5.87;;
2724;SDS011;1370;52.596;13.112;2023-08-31T01:25:09;5.40;;;4.90;;
2724;SDS011;1370;52.596;13.112;2023-08-31T01:27:35;4.20;;;3.90;;
2724;SDS011;1370;52.596;13.112;2023-08-31T01:30:00;4.60;;;4.30;;
2724;SDS011;1370;52.596;13.112;2023-08-31T01:32:27;4.50;;;4.20;;
2724;SDS011;1370;52.596;13.112;2023-08-31T01:34:53;5.13;;;4.70;;
2724;SDS011;1370;52.596;13.112;2023-08-31T01:37:42;4.00;;;3.80;;
2724;SDS011;1370;52.596;13.112;2023-08-31T01:40:22;4.27;;;4.07;;
2724;SDS011;1370;52.596;13.112;2023-08-31T01:42:50;3.60;;;3.40;;
2724;SDS011;1370;52.596;13.112;2023-08-31T01:45:19;3.30;;;3.10;;
2724;SDS011;1370;52.596;13.112;2023-08-31T01:47:46;3.70;;;3.27;;
2724;SDS011;1370;52.596;13.112;2023-08-31T01:50:11;3.73;;;3.50;;
2724;SDS011;1370;52.596;13.112;2023-08-31T01:52:37;2.97;;;2.77;;
2724;SDS011;1370;52.596;13.112;2023-08-31T01:55:02;2.93;;;2.73;;
2724;SDS011;1370;52.596;13.112;2023-08-31T01:57:28;3.07;;;2.60;;
2724;SDS011;1370;52.596;13.112;2023-08-31T01:59:53;3.80;;;3.50;;
2724;SDS011;1370;52.596;13.112;2023-08-31T02:02:19;2.70;;;2.60;;
2724;SDS011;1370;52.596;13.112;2023-08-31T02:04:44;3.83;;;2.83;;
2724;SDS011;1370;52.596;13.112;2023-08-31T02:07:09;3.07;;;2.87;;
2724;SDS011;1370;52.596;13.112;2023-08-31T02:09:35;2.50;;;2.30;;
2724;SDS011;1370;52.596;13.112;2023-08-31T02:12:00;2.90;;;2.70;;
2724;SDS011;1370;52.596;13.112;2023-08-31T02:14:25;3.30;;;3.10;;
2724;SDS011;1370;52.596;13.112;2023-08-31T02:16:51;3.70;;;2.50;;
2724;SDS011;1370;52.596;13.112;2023-08-31T02:19:16;2.27;;;2.17;;
2724;SDS011;1370;52.596;13.112;2023-08-31T02:21:41;3.27;;;3.00;;
2724;SDS011;1370;52.596;13.112;2023-08-31T02:24:06;3.40;;;3.20;;
2724;SDS011;1370;52.596;13.112;2023-08-31T02:26:33;2.80;;;2.60;;
2724;SDS011;1370;52.596;13.112;2023-08-31T02:29:00;2.63;;;2.43;;
2724;SDS011;1370;52.596;13.112;2023-08-31T02:31:25;2.73;;;2.53;;
2724;SDS011;1370;52.596;13.112;2023-08-31T02:33:50;3.57;;;3.27;;
2724;SDS011;1370;52.596;13.112;2023-08-31T02:36:17;3.30;;;3.10;;
2724;SDS011;1370;52.596;13.112;2023-08-31T02:38:44;3.60;;;3.30;;
2724;SDS011;1370;52.596;13.112;2023-08-31T02:41:11;3.70;;;2.50;;
2724;SDS011;1370;52.596;13.112;2023-08-31T02:43:36;3.53;;;2.47;;
2724;SDS011;1370;52.596;13.112;2023-08-31T02:46:02;3.27;;;3.07;;
2724;SDS011;1370;52.596;13.112;2023-08-31T02:48:27;3.80;;;3.50;;
2724;SDS011;1370;52.596;13.112;2023-08-31T02:50:54;3.10;;;2.80;;
2724;SDS011;1370;52.596;13.112;2023-08-31T02:53:19;3.10;;;2.80;;
2724;SDS011;1370;52.596;13.112;2023-08-31T02:55:45;3.10;;;2.80;;
2724;SDS011;1370;52.596;13.112;2023-08-31T02:58:10;3.03;;;2.83;;
2724;SDS011;1370;52.596;13.112;2023-08-31T03:00:35;3.67;;;3.37;;
2724;SDS011;1370;52.596;13.112;2023-08-31T03:03:04;2.70;;;2.50;;
2724;SDS011;1370;52.596;13.112;2023-08-31T03:05:29;3.50;;;3.30;;
2724;SDS011;1370;52.596;13.112;2023-08-31T03:07:55;3.13;;;2.83;;
2724;SDS011;1370;52.596;13.112;2023-08-31T03:10:22;2.57;;;2.37;;
2724;SDS011;1370;52.596;13.112;2023-08-31T03:12:47;3.93;;;3.57;;
2724;SDS011;1370;52.596;13.112;2023-08-31T03:15:12;3.00;;;2.80;;
2724;SDS011;1370;52.596;13.112;2023-08-31T03:17:38;3.43;;;3.23;;
2724;SDS011;1370;52.596;13.112;2023-08-31T03:20:03;2.73;;;2.53;;
2724;SDS011;1370;52.596;13.112;2023-08-31T03:22:31;3.50;;;3.30;;
2724;SDS011;1370;52.596;13.112;2023-08-31T03:24:56;3.40;;;3.20;;
2724;SDS011;1370;52.596;13.112;2023-08-31T03:27:21;3.23;;;3.00;;
2724;SDS011;1370;52.596;13.112;2023-08-31T03:29:47;4.03;;;3.73;;
2724;SDS011;1370;52.596;13.112;2023-08-31T03:32:12;3.13;;;2.93;;
2724;SDS011;1370;52.596;13.112;2023-08-31T03:34:37;4.50;;;3.90;;
2724;SDS011;1370;52.596;13.112;2023-08-31T03:37:02;3.67;;;3.27;;
2724;SDS011;1370;52.596;13.112;2023-08-31T03:39:28;3.60;;;3.27;;
2724;SDS011;1370;52.596;13.112;2023-08-31T03:41:53;3.53;;;3.30;;
2724;SDS011;1370;52.596;13.112;2023-08-31T03:44:20;3.20;;;2.90;;
2724;SDS011;1370;52.596;13.112;2023-08-31T03:46:45;3.63;;;3.33;;
2724;SDS011;1370;52.596;13.112;2023-08-31T03:49:10;6.53;;;4.07;;
2724;SDS011;1370;52.596;13.112;2023-08-31T03:51:36;3.77;;;3.57;;
2724;SDS011;1370;52.596;13.112;2023-08-31T03:54:01;4.73;;;4.20;;
2724;SDS011;1370;52.596;13.112;2023-08-31T03:56:26;3.93;;;3.63;;
2724;SDS011;1370;52.596;13.112;2023-08-31T03:58:52;4.07;;;3.67;;
2724;SDS011;1370;52.596;13.112;2023-08-31T04:01:17;6.53;;;4.17;;
2724;SDS011;1370;52.596;13.112;2023-08-31T04:03:43;3.80;;;3.60;;
2724;SDS011;1370;52.596;13.112;2023-08-31T04:06:08;3.97;;;3.77;;
2724;SDS011;1370;52.596;13.112;2023-08-31T04:08:33;4.30;;;4.00;;
2724;SDS011;1370;52.596;13.112;2023-08-31T04:10:59;5.43;;;5.03;;
2724;SDS011;1370;52.596;13.112;2023-08-31T04:13:24;4.50;;;4.20;;
2724;SDS011;1370;52.596;13.112;2023-08-31T04:15:51;5.67;;;5.17;;
2724;SDS011;1370;52.596;13.112;2023-08-31T04:18:17;4.47;;;4.13;;
2724;SDS011;1370;52.596;13.112;2023-08-31T04:20:49;5.40;;;5.00;;
2724;SDS011;1370;52.596;13.112;2023-08-31T04:23:15;7.70;;;6.03;;
2724;SDS011;1370;52.596;13.112;2023-08-31T04:25:41;10.57;;;6.10;;
2724;SDS011;1370;52.596;13.112;2023-08-31T04:28:07;8.00;;;5.70;;
2724;SDS011;1370;52.596;13.112;2023-08-31T04:30:32;6.47;;;5.80;;
2724;SDS011;1370;52.596;13.112;2023-08-31T04:32:57;6.40;;;5.50;;
2724;SDS011;1370;52.596;13.112;2023-08-31T04:35:22;7.40;;;6.23;;
2724;SDS011;1370;52.596;13.112;2023-08-31T04:37:49;8.23;;;6.60;;
2724;SDS011;1370;52.596;13.112;2023-08-31T04:40:14;7.63;;;6.20;;
2724;SDS011;1370;52.596;13.112;2023-08-31T04:42:39;7.07;;;6.40;;
2724;SDS011;1370;52.596;13.112;2023-08-31T04:45:05;6.20;;;5.60;;
2724;SDS011;1370;52.596;13.112;2023-08-31T04:47:31;6.40;;;5.80;;
2724;SDS011;1370;52.596;13.112;2023-08-31T04:49:56;6.97;;;6.43;;
2724;SDS011;1370;52.596;13.112;2023-08-31T04:52:24;8.03;;;7.23;;
2724;SDS011;1370;52.596;13.112;2023-08-31T04:54:49;7.67;;;7.07;;
2724;SDS011;1370;52.596;13.112;2023-08-31T04:57:14;9.27;;;6.67;;
2724;SDS011;1370;52.596;13.112;2023-08-31T04:59:39;9.33;;;6.73;;
2724;SDS011;1370;52.596;13.112;2023-08-31T05:02:05;7.93;;;7.20;;
2724;SDS011;1370;52.596;13.112;2023-08-31T05:04:30;7.90;;;7.20;;
2724;SDS011;1370;52.596;13.112;2023-08-31T05:06:55;7.80;;;7.10;;
2724;SDS011;1370;52.596;13.112;2023-08-31T05:09:21;8.07;;;7.33;;
2724;SDS011;1370;52.596;13.112;2023-08-31T05:11:46;6.90;;;6.40;;
2724;SDS011;1370;52.596;13.112;2023-08-31T05:14:11;8.10;;;7.50;;
2724;SDS011;1370;52.596;13.112;2023-08-31T05:16:36;7.40;;;6.80;;
2724;SDS011;1370;52.596;13.112;2023-08-31T05:19:02;8.60;;;7.90;;
2724;SDS011;1370;52.596;13.112;2023-08-31T05:21:27;8.60;;;7.80;;
2724;SDS011;1370;52.596;13.112;2023-08-31T05:23:53;9.20;;;8.27;;
2724;SDS011;1370;52.596;13.112;2023-08-31T05:26:18;9.37;;;8.40;;
2724;SDS011;1370;52.596;13.112;2023-08-31T05:28:43;9.63;;;8.63;;
2724;SDS011;1370;52.596;13.112;2023-08-31T05:31:08;8.73;;;7.93;;
2724;SDS011;1370;52.596;13.112;2023-08-31T05:33:34;9.10;;;8.27;;
2724;SDS011;1370;52.596;13.112;2023-08-31T05:36:02;10.10;;;9.20;;
2724;SDS011;1370;52.596;13.112;2023-08-31T05:38:31;8.73;;;7.60;;
2724;SDS011;1370;52.596;13.112;2023-08-31T05:41:06;8.60;;;7.80;;
2724;SDS011;1370;52.596;13.112;2023-08-31T05:43:32;9.33;;;7.60;;
2724;SDS011;1370;52.596;13.112;2023-08-31T05:45:58;10.00;;;8.30;;
2724;SDS011;1370;52.596;13.112;2023-08-31T05:48:23;10.17;;;9.13;;
2724;SDS011;1370;52.596;13.112;2023-08-31T05:50:49;9.13;;;8.23;;
2724;SDS011;1370;52.596;13.112;2023-08-31T05:53:14;12.13;;;9.53;;
2724;SDS011;1370;52.596;13.112;2023-08-31T05:55:39;10.93;;;8.10;;
2724;SDS011;1370;52.596;13.112;2023-08-31T05:58:05;9.60;;;8.67;;
2724;SDS011;1370;52.596;13.112;2023-08-31T06:00:30;11.10;;;8.87;;
2724;SDS011;1370;52.596;13.112;2023-08-31T06:02:55;10.57;;;9.57;;
2724;SDS011;1370;52.596;13.112;2023-08-31T06:05:21;10.57;;;8.87;;
2724;SDS011;1370;52.596;13.112;2023-08-31T06:07:46;12.10;;;9.67;;
2724;SDS011;1370;52.596;13.112;2023-08-31T06:10:11;10.03;;;9.13;;
2724;SDS011;1370;52.596;13.112;2023-08-31T06:12:38;16.33;;;14.10;;
2724;SDS011;1370;52.596;13.112;2023-08-31T06:15:03;69.17;;;50.60;;
2724;SDS011;1370;52.596;13.112;2023-08-31T06:17:29;19.37;;;14.20;;
2724;SDS011;1370;52.596;13.112;2023-08-31T06:19:54;14.00;;;12.20;;
2724;SDS011;1370;52.596;13.112;2023-08-31T06:22:20;12.47;;;9.70;;
2724;SDS011;1370;52.596;13.112;2023-08-31T06:24:47;11.50;;;10.10;;
2724;SDS011;1370;52.596;13.112;2023-08-31T06:27:16;9.73;;;8.50;;
2724;SDS011;1370;52.596;13.112;2023-08-31T06:29:42;8.80;;;8.10;;
2724;SDS011;1370;52.596;13.112;2023-08-31T06:32:08;13.23;;;10.40;;
2724;SDS011;1370;52.596;13.112;2023-08-31T06:34:33;8.97;;;7.97;;
2724;SDS011;1370;52.596;13.112;2023-08-31T06:36:58;10.03;;;9.03;;
2724;SDS011;1370;52.596;13.112;2023-08-31T06:39:24;10.20;;;9.07;;
2724;SDS011;1370;52.596;13.112;2023-08-31T06:41:49;12.80;;;8.20;;
2724;SDS011;1370;52.596;13.112;2023-08-31T06:44:27;8.60;;;8.00;;
2724;SDS011;1370;52.596;13.112;2023-08-31T06:47:01;9.33;;;8.37;;
2724;SDS011;1370;52.596;13.112;2023-08-31T06:49:28;9.30;;;8.33;;
2724;SDS011;1370;52.596;13.112;2023-08-31T06:52:02;9.10;;;7.80;;
2724;SDS011;1370;52.596;13.112;2023-08-31T06:54:28;13.57;;;8.40;;
2724;SDS011;1370;52.596;13.112;2023-08-31T06:56:53;9.20;;;7.97;;
2724;SDS011;1370;52.596;13.112;2023-08-31T06:59:18;12.17;;;7.80;;
2724;SDS011;1370;52.596;13.112;2023-08-31T07:01:44;9.20;;;8.30;;
2724;SDS011;1370;52.596;13.112;2023-08-31T07:04:09;9.97;;;7.37;;
2724;SDS011;1370;52.596;13.112;2023-08-31T07:06:35;8.93;;;8.07;;
2724;SDS011;1370;52.596;13.112;2023-08-31T07:09:03;7.93;;;7.13;;
2724;SDS011;1370;52.596;13.112;2023-08-31T07:11:31;7.27;;;6.60;;
2724;SDS011;1370;52.596;13.112;2023-08-31T07:13:56;7.70;;;6.97;;
2724;SDS011;1370;52.596;13.112;2023-08-31T07:16:26;7.23;;;6.73;;
2724;SDS011;1370;52.596;13.112;2023-08-31T07:18:59;7.33;;;6.50;;
2724;SDS011;1370;52.596;13.112;2023-08-31T07:21:24;8.93;;;7.57;;
2724;SDS011;1370;52.596;13.112;2023-08-31T07:23:49;8.27;;;7.67;;
2724;SDS011;1370;52.596;13.112;2023-08-31T07:26:15;6.63;;;6.00;;
2724;SDS011;1370;52.596;13.112;2023-08-31T07:28:41;9.10;;;6.47;;
2724;SDS011;1370;52.596;13.112;2023-08-31T07:31:06;7.87;;;7.00;;
2724;SDS011;1370;52.596;13.112;2023-08-31T07:33:32;9.57;;;6.00;;
2724;SDS011;1370;52.596;13.112;2023-08-31T07:35:59;5.73;;;5.27;;
2724;SDS011;1370;52.596;13.112;2023-08-31T07:38:25;5.70;;;5.20;;
2724;SDS011;1370;52.596;13.112;2023-08-31T07:40:58;14.17;;;7.70;;
2724;SDS011;1370;52.596;13.112;2023-08-31T07:43:27;7.00;;;5.93;;
2724;SDS011;1370;52.596;13.112;2023-08-31T07:45:53;7.47;;;5.40;;
2724;SDS011;1370;52.596;13.112;2023-08-31T07:48:18;8.93;;;5.30;;
2724;SDS011;1370;52.596;13.112;2023-08-31T07:50:44;5.53;;;5.13;;
2724;SDS011;1370;52.596;13.112;2023-08-31T07:53:10;5.60;;;5.20;;
2724;SDS011;1370;52.596;13.112;2023-08-31T07:55:36;5.37;;;4.97;;
2724;SDS011;1370;52.596;13.112;2023-08-31T07:58:01;4.60;;;4.20;;
2724;SDS011;1370;52.596;13.112;2023-08-31T08:00:27;5.93;;;5.20;;
2724;SDS011;1370;52.596;13.112;2023-08-31T08:02:52;4.97;;;4.50;;
2724;SDS011;1370;52.596;13.112;2023-08-31T08:05:17;13.80;;;11.40;;
2724;SDS011;1370;52.596;13.112;2023-08-31T08:07:43;25.60;;;22.67;;
2724;SDS011;1370;52.596;13.112;2023-08-31T08:10:09;9.57;;;8.50;;
2724;SDS011;1370;52.596;13.112;2023-08-31T08:12:41;9.03;;;7.80;;
2724;SDS011;1370;52.596;13.112;2023-08-31T08:15:09;5.53;;;4.03;;
2724;SDS011;1370;52.596;13.112;2023-08-31T08:17:35;6.33;;;3.73;;
2724;SDS011;1370;52.596;13.112;2023-08-31T08:20:00;5.03;;;4.20;;
2724;SDS011;1370;52.596;13.112;2023-08-31T08:22:26;3.30;;;3.00;;
2724;SDS011;1370;52.596;13.112;2023-08-31T08:24:51;6.00;;;3.00;;
2724;SDS011;1370;52.596;13.112;2023-08-31T08:27:16;3.33;;;2.93;;
2724;SDS011;1370;52.596;13.112;2023-08-31T08:29:43;2.77;;;2.57;;
2724;SDS011;1370;52.596;13.112;2023-08-31T08:32:09;3.97;;;2.83;;
2724;SDS011;1370;52.596;13.112;2023-08-31T08:34:35;3.07;;;2.87;;
2724;SDS011;1370;52.596;13.112;2023-08-31T08:37:00;3.90;;;2.13;;
2724;SDS011;1370;52.596;13.112;2023-08-31T08:39:25;5.83;;;2.43;;
2724;SDS011;1370;52.596;13.112;2023-08-31T08:41:51;6.90;;;2.37;;
2724;SDS011;1370;52.596;13.112;2023-08-31T08:44:19;4.53;;;2.20;;
2724;SDS011;1370;52.596;13.112;2023-08-31T08:46:46;3.07;;;1.90;;
2724;SDS011;1370;52.596;13.112;2023-08-31T08:49:13;8.27;;;2.00;;
2724;SDS011;1370;52.596;13.112;2023-08-31T08:51:39;3.50;;;2.53;;
2724;SDS011;1370;52.596;13.112;2023-08-31T08:54:05;2.70;;;2.00;;
2724;SDS011;1370;52.596;13.112;2023-08-31T08:56:30;7.13;;;2.40;;
2724;SDS011;1370;52.596;13.112;2023-08-31T08:58:55;4.90;;;2.20;;
2724;SDS011;1370;52.596;13.112;2023-08-31T09:01:21;2.20;;;1.87;;
2724;SDS011;1370;52.596;13.112;2023-08-31T09:03:48;2.97;;;1.63;;
2724;SDS011;1370;52.596;13.112;2023-08-31T09:06:14;9.03;;;1.90;;
2724;SDS011;1370;52.596;13.112;2023-08-31T09:08:40;2.87;;;2.60;;
2724;SDS011;1370;52.596;13.112;2023-08-31T09:11:06;2.50;;;1.80;;
2724;SDS011;1370;52.596;13.112;2023-08-31T09:13:31;3.60;;;1.77;;
2724;SDS011;1370;52.596;13.112;2023-08-31T09:15:58;8.27;;;3.83;;
2724;SDS011;1370;52.596;13.112;2023-08-31T09:18:27;4.97;;;2.70;;
2724;SDS011;1370;52.596;13.112;2023-08-31T09:20:54;4.73;;;2.50;;
2724;SDS011;1370;52.596;13.112;2023-08-31T09:23:21;4.77;;;2.03;;
2724;SDS011;1370;52.596;13.112;2023-08-31T09:25:47;8.70;;;2.40;;
2724;SDS011;1370;52.596;13.112;2023-08-31T09:28:14;3.50;;;2.50;;
2724;SDS011;1370;52.596;13.112;2023-08-31T09:30:41;2.80;;;2.00;;
2724;SDS011;1370;52.596;13.112;2023-08-31T09:33:07;4.30;;;2.00;;
2724;SDS011;1370;52.596;13.112;2023-08-31T09:35:39;5.00;;;2.27;;
2724;SDS011;1370;52.596;13.112;2023-08-31T09:38:07;3.53;;;1.90;;
2724;SDS011;1370;52.596;13.112;2023-08-31T09:40:32;3.50;;;2.03;;
2724;SDS011;1370;52.596;13.112;2023-08-31T09:42:58;1.90;;;1.80;;
2724;SDS011;1370;52.596;13.112;2023-08-31T09:45:30;3.20;;;2.03;;
2724;SDS011;1370;52.596;13.112;2023-08-31T09:47:58;4.33;;;1.87;;
2724;SDS011;1370;52.596;13.112;2023-08-31T09:50:24;2.63;;;2.00;;
2724;SDS011;1370;52.596;13.112;2023-08-31T09:52:50;4.27;;;3.60;;
2724;SDS011;1370;52.596;13.112;2023-08-31T09:55:20;2.93;;;2.10;;
2724;SDS011;1370;52.596;13.112;2023-08-31T09:57:47;7.03;;;2.00;;
2724;SDS011;1370;52.596;13.112;2023-08-31T10:00:13;2.10;;;1.90;;
2724;SDS011;1370;52.596;13.112;2023-08-31T10:02:40;2.60;;;1.80;;
2724;SDS011;1370;52.596;13.112;2023-08-31T10:05:07;1.90;;;1.80;;
2724;SDS011;1370;52.596;13.112;2023-08-31T10:07:33;2.60;;;1.60;;
2724;SDS011;1370;52.596;13.112;2023-08-31T10:09:58;6.93;;;1.90;;
2724;SDS011;1370;52.596;13.112;2023-08-31T10:12:25;6.20;;;2.43;;
2724;SDS011;1370;52.596;13.112;2023-08-31T10:14:54;2.60;;;1.30;;
2724;SDS011;1370;52.596;13.112;2023-08-31T10:17:21;1.77;;;1.67;;
2724;SDS011;1370;52.596;13.112;2023-08-31T10:19:46;3.80;;;1.50;;
2724;SDS011;1370;52.596;13.112;2023-08-31T10:22:12;5.20;;;2.77;;
2724;SDS011;1370;52.596;13.112;2023-08-31T10:27:42;5.53;;;2.13;;
2724;SDS011;1370;52.596;13.112;2023-08-31T10:38:15;2.53;;;2.00;;
2724;SDS011;1370;52.596;13.112;2023-08-31T10:41:02;2.90;;;2.10;;
2724;SDS011;1370;52.596;13.112;2023-08-31T10:43:43;4.07;;;1.90;;
2724;SDS011;1370;52.596;13.112;2023-08-31T10:51:31;1.70;;;1.60;;
2724;SDS011;1370;52.596;13.112;2023-08-31T10:54:04;1.60;;;1.30;;
2724;SDS011;1370;52.596;13.112;2023-08-31T10:56:29;1.70;;;1.10;;
2724;SDS011;1370;52.596;13.112;2023-08-31T10:58:56;2.40;;;1.17;;
2724;SDS011;1370;52.596;13.112;2023-08-31T11:04:16;2.20;;;1.10;;
2724;SDS011;1370;52.596;13.112;2023-08-31T11:06:41;2.23;;;2.13;;
2724;SDS011;1370;52.596;13.112;2023-08-31T11:09:06;2.10;;;1.30;;
2724;SDS011;1370;52.596;13.112;2023-08-31T11:11:38;1.57;;;1.27;;
2724;SDS011;1370;52.596;13.112;2023-08-31T11:14:03;1.50;;;1.40;;
2724;SDS011;1370;52.596;13.112;2023-08-31T11:16:29;1.67;;;1.40;;
2724;SDS011;1370;52.596;13.112;2023-08-31T11:18:55;3.83;;;1.80;;
2724;SDS011;1370;52.596;13.112;2023-08-31T11:21:21;1.67;;;1.47;;
2724;SDS011;1370;52.596;13.112;2023-08-31T11:23:47;3.93;;;2.20;;
2724;SDS011;1370;52.596;13.112;2023-08-31T11:26:13;3.10;;;2.13;;
2724;SDS011;1370;52.596;13.112;2023-08-31T11:28:38;6.00;;;1.93;;
2724;SDS011;1370;52.596;13.112;2023-08-31T11:31:04;4.70;;;2.17;;
2724;SDS011;1370;52.596;13.112;2023-08-31T11:33:32;3.43;;;2.83;;
2724;SDS011;1370;52.596;13.112;2023-08-31T11:35:58;5.07;;;2.40;;
2724;SDS011;1370;52.596;13.112;2023-08-31T11:38:24;1.90;;;1.80;;
2724;SDS011;1370;52.596;13.112;2023-08-31T11:40:49;3.57;;;3.30;;
2724;SDS011;1370;52.596;13.112;2023-08-31T11:43:15;4.60;;;4.30;;
2724;SDS011;1370;52.596;13.112;2023-08-31T11:45:40;5.73;;;3.00;;
2724;SDS011;1370;52.596;13.112;2023-08-31T11:48:06;3.43;;;3.13;;
2724;SDS011;1370;52.596;13.112;2023-08-31T11:50:31;7.17;;;2.40;;
2724;SDS011;1370;52.596;13.112;2023-08-31T11:52:57;3.00;;;2.57;;
2724;SDS011;1370;52.596;13.112;2023-08-31T11:55:22;2.73;;;2.23;;
2724;SDS011;1370;52.596;13.112;2023-08-31T11:57:48;2.93;;;2.40;;
2724;SDS011;1370;52.596;13.112;2023-08-31T12:00:16;4.30;;;2.37;;
2724;SDS011;1370;52.596;13.112;2023-08-31T12:02:41;2.67;;;2.47;;
2724;SDS011;1370;52.596;13.112;2023-08-31T12:05:07;7.13;;;3.33;;
2724;SDS011;1370;52.596;13.112;2023-08-31T12:07:32;6.10;;;2.97;;
2724;SDS011;1370;52.596;13.112;2023-08-31T12:10:04;2.93;;;2.63;;
2724;SDS011;1370;52.596;13.112;2023-08-31T12:12:30;2.33;;;2.13;;
2724;SDS011;1370;52.596;13.112;2023-08-31T12:14:57;2.50;;;2.30;;
2724;SDS011;1370;52.596;13.112;2023-08-31T12:17:25;2.47;;;2.27;;
2724;SDS011;1370;52.596;13.112;2023-08-31T12:19:51;4.63;;;3.00;;
2724;SDS011;1370;52.596;13.112;2023-08-31T12:22:16;2.40;;;2.30;;
2724;SDS011;1370;52.596;13.112;2023-08-31T12:24:41;5.20;;;3.53;;
2724;SDS011;1370;52.596;13.112;2023-08-31T12:27:10;3.07;;;2.87;;
2724;SDS011;1370;52.596;13.112;2023-08-31T12:29:36;4.37;;;2.87;;
2724;SDS011;1370;52.596;13.112;2023-08-31T12:32:01;3.37;;;3.17;;
2724;SDS011;1370;52.596;13.112;2023-08-31T12:34:28;5.33;;;3.10;;
2724;SDS011;1370;52.596;13.112;2023-08-31T12:36:53;4.43;;;3.47;;
2724;SDS011;1370;52.596;13.112;2023-08-31T12:39:19;3.70;;;3.40;;
2724;SDS011;1370;52.596;13.112;2023-08-31T12:41:44;4.53;;;4.13;;
2724;SDS011;1370;52.596;13.112;2023-08-31T12:44:10;3.57;;;3.37;;
2724;SDS011;1370;52.596;13.112;2023-08-31T12:46:35;4.27;;;3.90;;
2724;SDS011;1370;52.596;13.112;2023-08-31T12:49:00;2.93;;;2.73;;
2724;SDS011;1370;52.596;13.112;2023-08-31T12:51:28;3.43;;;3.23;;
2724;SDS011;1370;52.596;13.112;2023-08-31T12:53:53;2.90;;;2.73;;
2724;SDS011;1370;52.596;13.112;2023-08-31T12:56:19;2.77;;;2.57;;
2724;SDS011;1370;52.596;13.112;2023-08-31T12:58:50;3.40;;;3.00;;
2724;SDS011;1370;52.596;13.112;2023-08-31T13:01:17;3.03;;;2.83;;
2724;SDS011;1370;52.596;13.112;2023-08-31T13:03:43;3.70;;;3.23;;
2724;SDS011;1370;52.596;13.112;2023-08-31T13:06:08;2.87;;;2.67;;
2724;SDS011;1370;52.596;13.112;2023-08-31T13:08:33;3.83;;;3.37;;
2724;SDS011;1370;52.596;13.112;2023-08-31T13:10:59;4.50;;;3.50;;
2724;SDS011;1370;52.596;13.112;2023-08-31T13:13:25;3.20;;;2.90;;
2724;SDS011;1370;52.596;13.112;2023-08-31T13:15:50;4.70;;;2.87;;
2724;SDS011;1370;52.596;13.112;2023-08-31T13:18:15;2.70;;;2.47;;
2724;SDS011;1370;52.596;13.112;2023-08-31T13:20:48;2.70;;;2.50;;
2724;SDS011;1370;52.596;13.112;2023-08-31T13:23:13;3.10;;;2.90;;
2724;SDS011;1370;52.596;13.112;2023-08-31T13:25:39;2.40;;;2.13;;
2724;SDS011;1370;52.596;13.112;2023-08-31T13:28:04;2.63;;;2.13;;
2724;SDS011;1370;52.596;13.112;2023-08-31T13:30:29;2.63;;;2.40;;
2724;SDS011;1370;52.596;13.112;2023-08-31T13:32:55;3.23;;;2.20;;
2724;SDS011;1370;52.596;13.112;2023-08-31T13:35:20;2.30;;;2.20;;
2724;SDS011;1370;52.596;13.112;2023-08-31T13:37:45;2.37;;;2.20;;
2724;SDS011;1370;52.596;13.112;2023-08-31T13:40:11;2.07;;;1.90;;
2724;SDS011;1370;52.596;13.112;2023-08-31T13:42:36;2.47;;;2.20;;
2724;SDS011;1370;52.596;13.112;2023-08-31T13:45:04;2.57;;;2.27;;
2724;SDS011;1370;52.596;13.112;2023-08-31T13:47:30;3.80;;;2.30;;
2724;SDS011;1370;52.596;13.112;2023-08-31T13:49:56;2.00;;;1.90;;
2724;SDS011;1370;52.596;13.112;2023-08-31T13:52:21;2.30;;;2.10;;
2724;SDS011;1370;52.596;13.112;2023-08-31T13:54:46;2.10;;;2.00;;
2724;SDS011;1370;52.596;13.112;2023-08-31T13:57:12;2.20;;;2.00;;
2724;SDS011;1370;52.596;13.112;2023-08-31T13:59:42;1.83;;;1.73;;
2724;SDS011;1370;52.596;13.112;2023-08-31T14:02:07;2.47;;;2.07;;
2724;SDS011;1370;52.596;13.112;2023-08-31T14:04:32;1.93;;;1.70;;
2724;SDS011;1370;52.596;13.112;2023-08-31T14:06:58;2.00;;;1.90;;
2724;SDS011;1370;52.596;13.112;2023-08-31T14:09:23;2.23;;;2.03;;
2724;SDS011;1370;52.596;13.112;2023-08-31T14:11:48;2.57;;;2.37;;
2724;SDS011;1370;52.596;13.112;2023-08-31T14:14:14;3.30;;;3.00;;
2724;SDS011;1370;52.596;13.112;2023-08-31T14:16:39;3.10;;;2.07;;
2724;SDS011;1370;52.596;13.112;2023-08-31T14:19:05;2.00;;;1.77;;
2724;SDS011;1370;52.596;13.112;2023-08-31T14:21:30;5.10;;;1.50;;
2724;SDS011;1370;52.596;13.112;2023-08-31T14:23:56;3.63;;;1.93;;
2724;SDS011;1370;52.596;13.112;2023-08-31T14:26:24;2.43;;;1.70;;
2724;SDS011;1370;52.596;13.112;2023-08-31T14:28:50;1.50;;;1.30;;
2724;SDS011;1370;52.596;13.112;2023-08-31T14:31:16;1.83;;;1.67;;
2724;SDS011;1370;52.596;13.112;2023-08-31T14:33:41;1.63;;;1.50;;
2724;SDS011;1370;52.596;13.112;2023-08-31T14:36:07;2.17;;;1.50;;
2724;SDS011;1370;52.596;13.112;2023-08-31T14:38:32;2.33;;;1.47;;
2724;SDS011;1370;52.596;13.112;2023-08-31T14:40:57;4.43;;;1.30;;
2724;SDS011;1370;52.596;13.112;2023-08-31T14:43:22;4.43;;;1.53;;
2724;SDS011;1370;52.596;13.112;2023-08-31T14:45:48;2.73;;;1.60;;
2724;SDS011;1370;52.596;13.112;2023-08-31T14:48:13;1.77;;;1.30;;
2724;SDS011;1370;52.596;13.112;2023-08-31T14:50:42;2.90;;;1.87;;
2724;SDS011;1370;52.596;13.112;2023-08-31T14:53:08;1.40;;;1.17;;
2724;SDS011;1370;52.596;13.112;2023-08-31T14:55:33;1.30;;;1.00;;
2724;SDS011;1370;52.596;13.112;2023-08-31T14:57:59;1.50;;;1.40;;
2724;SDS011;1370;52.596;13.112;2023-08-31T15:00:25;2.37;;;1.40;;
2724;SDS011;1370;52.596;13.112;2023-08-31T15:02:50;2.13;;;1.93;;
2724;SDS011;1370;52.596;13.112;2023-08-31T15:05:15;3.33;;;1.40;;
2724;SDS011;1370;52.596;13.112;2023-08-31T15:07:40;1.30;;;1.13;;
2724;SDS011;1370;52.596;13.112;2023-08-31T15:10:06;2.57;;;1.10;;
2724;SDS011;1370;52.596;13.112;2023-08-31T15:12:32;1.50;;;1.27;;
2724;SDS011;1370;52.596;13.112;2023-08-31T15:14:58;1.47;;;1.30;;
2724;SDS011;1370;52.596;13.112;2023-08-31T15:17:23;3.77;;;2.57;;
2724;SDS011;1370;52.596;13.112;2023-08-31T15:19:50;1.80;;;1.70;;